SIA132 WSSS-WMKP
Flight info
| Callsign | SIA132 |
|---|---|
| Flight time | N/A |
| Altitude | 34000 |
| Route | AROSO3A AROSO Y513 KALIL Y504 BILIK Y506 TEPUS GORVU1E |
| Aircraft | B738/M-SDE2E3FGHIRWXY/LB1 |
Departure
| Time | N/A |
|---|---|
| Airport | Singapore Changi Airport (WSSS) |
Arrival
| Time | 2026-05-05 02:22 |
|---|---|
| Airport | Penang International Airport (WMKP) |
| Time | Latitude | Longitude | Altitude | Speed | Heading |
|---|---|---|---|---|---|
| 2026-05-05 02:05 | 4.86079 | 100.45335 | 33906 ft | 375 kts | 337° |
| 2026-05-05 02:05 | 4.90877 | 100.43255 | 33898 ft | 376 kts | 341° |
| 2026-05-05 02:06 | 4.93431 | 100.42772 | 33900 ft | 374 kts | 1° |
| 2026-05-05 02:06 | 4.95979 | 100.43202 | 33899 ft | 374 kts | 21° |
| 2026-05-05 02:06 | 4.98225 | 100.44492 | 33904 ft | 374 kts | 41° |
| 2026-05-05 02:06 | 4.99891 | 100.46475 | 33873 ft | 373 kts | 60° |
| 2026-05-05 02:07 | 5.00849 | 100.48897 | 33193 ft | 381 kts | 78° |
| 2026-05-05 02:07 | 5.00975 | 100.51582 | 32162 ft | 393 kts | 97° |
| 2026-05-05 02:07 | 5.00205 | 100.54248 | 30995 ft | 407 kts | 115° |
| 2026-05-05 02:07 | 4.98612 | 100.56615 | 29584 ft | 426 kts | 133° |
| 2026-05-05 02:08 | 4.96285 | 100.58527 | 28047 ft | 440 kts | 145° |
| 2026-05-05 02:08 | 4.93653 | 100.60158 | 26645 ft | 449 kts | 148° |
| 2026-05-05 02:08 | 4.90944 | 100.61725 | 25563 ft | 449 kts | 149° |
| 2026-05-05 02:08 | 4.88246 | 100.63255 | 24722 ft | 442 kts | 149° |
| 2026-05-05 02:09 | 4.85569 | 100.64765 | 23593 ft | 442 kts | 149° |
| 2026-05-05 02:09 | 4.82885 | 100.66273 | 22219 ft | 443 kts | 149° |
| 2026-05-05 02:09 | 4.80186 | 100.67758 | 21004 ft | 441 kts | 154° |
| 2026-05-05 02:09 | 4.77552 | 100.68619 | 20016 ft | 439 kts | 169° |
| 2026-05-05 02:10 | 4.74531 | 100.68686 | 19079 ft | 434 kts | 187° |
| 2026-05-05 02:10 | 4.71658 | 100.67853 | 18155 ft | 429 kts | 204° |
| 2026-05-05 02:10 | 4.69188 | 100.66205 | 17083 ft | 425 kts | 221° |
| 2026-05-05 02:10 | 4.67161 | 100.64077 | 16102 ft | 419 kts | 228° |
| 2026-05-05 02:11 | 4.65280 | 100.61867 | 15118 ft | 414 kts | 229° |
| 2026-05-05 02:11 | 4.63454 | 100.59663 | 14172 ft | 408 kts | 229° |
| 2026-05-05 02:11 | 4.61658 | 100.57481 | 13185 ft | 403 kts | 230° |
| 2026-05-05 02:11 | 4.59890 | 100.55326 | 12218 ft | 397 kts | 230° |
| 2026-05-05 02:12 | 4.58152 | 100.53205 | 11302 ft | 391 kts | 230° |
| 2026-05-05 02:12 | 4.54967 | 100.48909 | 9447 ft | 381 kts | 247° |
| 2026-05-05 02:12 | 4.54433 | 100.46334 | 8548 ft | 377 kts | 269° |
| 2026-05-05 02:13 | 4.54760 | 100.43758 | 7768 ft | 370 kts | 287° |
| 2026-05-05 02:13 | 4.55864 | 100.41500 | 6982 ft | 367 kts | 306° |
| 2026-05-05 02:13 | 4.57627 | 100.39667 | 6502 ft | 363 kts | 323° |
| 2026-05-05 02:13 | 4.59813 | 100.38417 | 6377 ft | 364 kts | 335° |
| 2026-05-05 02:14 | 4.62113 | 100.37358 | 6257 ft | 362 kts | 336° |
| 2026-05-05 02:14 | 4.64412 | 100.36341 | 6126 ft | 360 kts | 337° |
| 2026-05-05 02:14 | 4.66704 | 100.35333 | 6044 ft | 360 kts | 337° |
| 2026-05-05 02:14 | 4.69570 | 100.34061 | 6025 ft | 359 kts | 336° |
| 2026-05-05 02:15 | 4.77376 | 100.30542 | 5995 ft | 360 kts | 336° |
| 2026-05-05 02:15 | 4.86385 | 100.26438 | 5950 ft | 341 kts | 336° |
| 2026-05-05 02:15 | 4.94387 | 100.22787 | 5857 ft | 288 kts | 336° |
| 2026-05-05 02:15 | 5.01048 | 100.19751 | 5854 ft | 246 kts | 337° |
| 2026-05-05 02:16 | 5.03979 | 100.18418 | 5943 ft | 245 kts | 337° |
| 2026-05-05 02:16 | 5.05563 | 100.17697 | 5578 ft | 259 kts | 336° |
| 2026-05-05 02:16 | 5.07283 | 100.16914 | 4842 ft | 280 kts | 336° |
| 2026-05-05 02:16 | 5.09097 | 100.16087 | 4276 ft | 289 kts | 336° |
| 2026-05-05 02:17 | 5.10900 | 100.15265 | 4021 ft | 276 kts | 336° |
| 2026-05-05 02:17 | 5.12580 | 100.14543 | 3799 ft | 255 kts | 345° |
| 2026-05-05 02:17 | 5.14247 | 100.14593 | 3635 ft | 233 kts | 22° |
| 2026-05-05 02:17 | 5.15637 | 100.15309 | 3377 ft | 219 kts | 33° |
| 2026-05-05 02:18 | 5.16858 | 100.16152 | 3114 ft | 207 kts | 37° |
| 2026-05-05 02:18 | 5.17938 | 100.17025 | 2832 ft | 192 kts | 41° |
| 2026-05-05 02:18 | 5.18912 | 100.17895 | 2580 ft | 182 kts | 43° |
| 2026-05-05 02:18 | 5.19817 | 100.18715 | 2382 ft | 167 kts | 43° |
| 2026-05-05 02:19 | 5.20654 | 100.19474 | 2148 ft | 158 kts | 43° |
| 2026-05-05 02:19 | 5.21460 | 100.20205 | 1928 ft | 154 kts | 43° |
| 2026-05-05 02:19 | 5.22242 | 100.20914 | 1735 ft | 153 kts | 42° |
| 2026-05-05 02:19 | 5.23039 | 100.21636 | 1531 ft | 155 kts | 42° |
| 2026-05-05 02:20 | 5.23836 | 100.22358 | 1325 ft | 154 kts | 42° |
| 2026-05-05 02:20 | 5.24629 | 100.23076 | 1119 ft | 153 kts | 42° |
| 2026-05-05 02:20 | 5.25420 | 100.23793 | 927 ft | 153 kts | 42° |
| 2026-05-05 02:20 | 5.26210 | 100.24509 | 724 ft | 153 kts | 42° |
| 2026-05-05 02:21 | 5.26999 | 100.25223 | 512 ft | 152 kts | 42° |
| 2026-05-05 02:21 | 5.27781 | 100.25935 | 291 ft | 151 kts | 42° |
| 2026-05-05 02:21 | 5.28557 | 100.26641 | 88 ft | 149 kts | 41° |
| 2026-05-05 02:21 | 5.29329 | 100.27333 | 25 ft | 149 kts | 43° |
| 2026-05-05 02:22 | 5.30022 | 100.27963 | 26 ft | 86 kts | 42° |
| 2026-05-05 02:22 | 5.30240 | 100.28164 | 24 ft | 37 kts | 41° |
| 2026-05-05 02:22 | 5.30506 | 100.28402 | 22 ft | 64 kts | 43° |
| 2026-05-05 02:22 | 5.30772 | 100.28643 | 25 ft | 30 kts | 39° |
| 2026-05-05 02:23 | 5.30891 | 100.28629 | 23 ft | 16 kts | 309° |
| 2026-05-05 02:23 | 5.30903 | 100.28540 | 22 ft | 3 kts | 243° |
| 2026-05-05 02:23 | 5.30880 | 100.28515 | 22 ft | 7 kts | 225° |
| 2026-05-05 02:23 | 5.30834 | 100.28473 | 22 ft | 11 kts | 222° |
| 2026-05-05 02:24 | 5.30765 | 100.28410 | 23 ft | 16 kts | 222° |
| 2026-05-05 02:24 | 5.30674 | 100.28327 | 22 ft | 20 kts | 223° |
| 2026-05-05 02:24 | 5.30564 | 100.28225 | 21 ft | 23 kts | 223° |
| 2026-05-05 02:24 | 5.30438 | 100.28112 | 22 ft | 24 kts | 221° |
| 2026-05-05 02:25 | 5.30315 | 100.28003 | 22 ft | 23 kts | 221° |
| 2026-05-05 02:25 | 5.30208 | 100.27888 | 22 ft | 22 kts | 228° |
| 2026-05-05 02:25 | 5.30179 | 100.27857 | 22 ft | 22 kts | 225° |
| 2026-05-05 02:26 | 5.30133 | 100.27811 | 22 ft | 22 kts | 225° |
| 2026-05-05 02:26 | 5.30025 | 100.27708 | 22 ft | 21 kts | 222° |
| 2026-05-05 02:26 | 5.29919 | 100.27609 | 22 ft | 20 kts | 223° |
| 2026-05-05 02:27 | 5.29815 | 100.27515 | 22 ft | 20 kts | 222° |
| 2026-05-05 02:27 | 5.29716 | 100.27424 | 22 ft | 19 kts | 223° |
| 2026-05-05 02:27 | 5.29619 | 100.27334 | 22 ft | 19 kts | 221° |
| 2026-05-05 02:27 | 5.29524 | 100.27249 | 22 ft | 18 kts | 221° |
| 2026-05-05 02:28 | 5.29432 | 100.27167 | 22 ft | 17 kts | 222° |
| 2026-05-05 02:28 | 5.29348 | 100.27085 | 22 ft | 17 kts | 242° |
| 2026-05-05 02:28 | 5.29388 | 100.26986 | 22 ft | 16 kts | 312° |
| 2026-05-05 02:28 | 5.29373 | 100.26892 | 22 ft | 15 kts | 222° |
| 2026-05-05 02:29 | 5.29369 | 100.26889 | 22 ft | 15 kts | 221° |
| 2026-05-05 02:29 | 5.29292 | 100.26821 | 22 ft | 15 kts | 221° |
| 2026-05-05 02:29 | 5.29261 | 100.26784 | 22 ft | 5 kts | 260° |
| 2026-05-05 02:29 | 5.29277 | 100.26753 | 24 ft | 5 kts | 308° |
| 2026-05-05 02:30 | 5.29288 | 100.26740 | 22 ft | 0 kts | 312° |
| 2026-05-05 02:31 | 5.29294 | 100.26734 | 22 ft | 2 kts | 313° |
| 2026-05-05 02:31 | 5.29303 | 100.26724 | 22 ft | 1 kts | 311° |
| 2026-05-05 02:31 | 5.29306 | 100.26721 | 22 ft | 0 kts | 311° |